Погода Китмансхупна 2 недели

Карас, Намибия

26 июня-08 июля
  • 26июня
    Сегодня
    +11°
    +22°
    Ясно и безоблачно
    ВремяПогодаТемператураВлажностьДавлениеВетер, м/сВероятность осадков
    02:00Ясно и безоблачно+13°C46 %688 мм4.1 м/с2 %
    05:00Ясно и безоблачно+12°C48 %687 мм4.2 м/с2 %
    08:00Ясно и безоблачно+11°C47 %687 мм5.1 м/с2 %
    11:00Ясно и безоблачно+19°C32 %690 мм7.2 м/с2 %
    14:00Ясно и безоблачно+22°C25 %688 мм7.1 м/с2 %
    17:00Ясно и безоблачно+22°C24 %687 мм6.1 м/с2 %
    20:00Ясно и безоблачно+17°C32 %687 мм3.8 м/с2 %
    23:00Ясно и безоблачно+15°C36 %686 мм4.5 м/с2 %
  • 27июня
    Четверг
    +11°
    +23°
    Ясно и безоблачно
    ВремяПогодаТемператураВлажностьДавлениеВетер, м/сВероятность осадков
    02:00Ясно и безоблачно+14°C39 %686 мм5.0 м/с2 %
    05:00Практически безоблачно+13°C43 %686 мм5.3 м/с2 %
    08:00Практически безоблачно+12°C49 %686 мм6.0 м/с2 %
    11:00Облачно с прояснениями+19°C30 %688 мм8.4 м/с2 %
    14:00Ясно и безоблачно+22°C24 %687 мм8.2 м/с2 %
    17:00Ясно и безоблачно+22°C23 %686 мм6.9 м/с2 %
    20:00Ясно и безоблачно+17°C29 %685 мм4.1 м/с2 %
    23:00Ясно и безоблачно+15°C33 %685 мм5.5 м/с2 %
  • 28июня
    Пятница
    +12°
    +25°
    Ясно и безоблачно
    ВремяПогодаТемператураВлажностьДавлениеВетер, м/сВероятность осадков
    02:00Ясно и безоблачно+14°C37 %685 мм6.2 м/с2 %
    05:00Ясно и безоблачно+13°C43 %684 мм6.1 м/с2 %
    08:00Ясно и безоблачно+11°C46 %684 мм6.5 м/с2 %
    11:00Ясно и безоблачно+19°C32 %686 мм8.5 м/с2 %
    14:00Ясно и безоблачно+24°C24 %685 мм7.8 м/с2 %
    17:00Ясно и безоблачно+25°C20 %684 мм4.6 м/с2 %
    20:00Практически безоблачно+19°C27 %683 мм4.1 м/с2 %
    23:00Практически безоблачно+17°C30 %683 мм4.2 м/с2 %
  • 29июня
    Суббота
    +12°
    +27°
    Облачно с прояснениями
    ВремяПогодаТемператураВлажностьДавлениеВетер, м/сВероятность осадков
    02:00Ясно и безоблачно+16°C35 %682 мм5.2 м/с3 %
    05:00Ясно и безоблачно+14°C43 %682 мм4.8 м/с2 %
    08:00Ясно и безоблачно+13°C45 %682 мм5.8 м/с2 %
    11:00Ясно и безоблачно+21°C27 %684 мм7.4 м/с2 %
    14:00Облачно с прояснениями+27°C15 %683 мм5.5 м/с2 %
    17:00Небольшая облачность+27°C14 %683 мм4.7 м/с2 %
    20:00Облачно с прояснениями+20°C19 %682 мм2.6 м/с2 %
    23:00Ясно и безоблачно+18°C23 %681 мм2.4 м/с2 %
Мы используем cookies
Соглашаюсь